This is the latest recevied weather packets stored in our database for station/object VA3BOO. If no packets are shown the sender has not sent any weather packets the latest 10 day(s).
| Time | Temp. | Humidity | Pressure | Rain* | Wind** | Luminosity | Snow |
|---|---|---|---|---|---|---|---|
| 1777847105 | 10° C | 51% | 1008.3 hPa | 0 mm | - | 79 W/m² | - |
| 1777846805 | 10.56° C | 49% | 1008 hPa | 0 mm | - | 81 W/m² | - |
| 1777846505 | 11.67° C | 44% | 1007.9 hPa | 0 mm | - | 91 W/m² | - |
| 1777846205 | 12.22° C | 43% | 1007.9 hPa | 0 mm | - | 193 W/m² | - |
| 1777845905 | 11.67° C | 42% | 1007.9 hPa | 0 mm | - | 218 W/m² | - |
| 1777845605 | 11.67° C | 41% | 1008.3 hPa | 0 mm | - | 223 W/m² | - |
| 1777845305 | 11.67° C | 46% | 1008.2 hPa | 0 mm | - | 174 W/m² | - |
| 1777845005 | 11.67° C | 47% | 1007.9 hPa | 0 mm | - | 242 W/m² | - |
| 1777844705 | 11.67° C | 44% | 1007.9 hPa | 0 mm | - | 270 W/m² | - |
| 1777844405 | 11.67° C | 43% | 1008.3 hPa | 0 mm | - | 292 W/m² | - |
| 1777844105 | 11.67° C | 46% | 1008 hPa | 0 mm | - | 288 W/m² | - |
| 1777843805 | 11.67° C | 48% | 1008.2 hPa | 0 mm | - | 347 W/m² | - |
| 1777843505 | 10.56° C | 49% | 1008 hPa | 0 mm | - | 374 W/m² | - |
| 1777843205 | 10.56° C | 52% | 1008.2 hPa | 0 mm | - | 139 W/m² | - |
| 1777842905 | 11.11° C | 53% | 1008.3 hPa | 0 mm | - | 146 W/m² | - |
| 1777842605 | 11.11° C | 55% | 1008 hPa | 0 mm | - | 395 W/m² | - |
| 1777842305 | 10.56° C | 56% | 1008 hPa | 0 mm | - | 406 W/m² | - |
| 1777842005 | 11.11° C | 55% | 1008.4 hPa | 0 mm | - | 427 W/m² | - |
| 1777841705 | 11.11° C | 54% | 1008.4 hPa | 0 mm | - | 400 W/m² | - |
| 1777841405 | 11.11° C | 55% | 1008.5 hPa | 0 mm | - | 447 W/m² | - |
| 1777841105 | 11.11° C | 53% | 1008.6 hPa | 0 mm | - | 473 W/m² | - |
| 1777840805 | 11.11° C | 54% | 1008.4 hPa | 0 mm | - | 487 W/m² | - |
| 1777840505 | 10.56° C | 58% | 1008.7 hPa | 0 mm | - | 494 W/m² | - |
| 1777840205 | 11.11° C | 54% | 1008.9 hPa | 0 mm | - | 456 W/m² | - |
| 1777839905 | 11.11° C | 56% | 1009 hPa | 0 mm | - | 544 W/m² | - |
* Rain latest hour (hover to see other rain measurements)
** Current wind speed in m/s (hover to see current wind gust speed)